Time;durP1;ratioP1;P1;durP2;ratioP2;P2;SDS_P1;SDS_P2;PMS_P1;PMS_P2;Temp;Humidity;BMP_temperature;BMP_pressure;BME280_temperature;BME280_humidity;BME280_pressure;Samples;Min_cycle;Max_cycle;Signal;HPM_P1;HPM_P2
2022/01/25 00:31:10;;;;;;;13.20;6.30;;;;;;;-6.66;84.10;102151.66;4819159;29;20604;-72
2022/01/25 00:33:38;;;;;;;11.07;6.40;;;;;;;-6.58;83.59;102159.28;4820249;29;20042;-69
2022/01/25 00:36:06;;;;;;;15.23;7.07;;;;;;;-6.54;83.51;102161.50;4820746;29;20121;-67
2022/01/25 00:38:32;;;;;;;17.40;10.23;;;;;;;-6.78;84.56;102174.25;4819557;29;20030;-71
2022/01/25 00:40:58;;;;;;;16.77;9.73;;;;;;;-6.77;84.84;102171.91;4837234;29;20045;-70
2022/01/25 00:43:26;;;;;;;15.93;8.70;;;;;;;-6.70;84.59;102176.19;4856401;29;20034;-69
2022/01/25 00:45:54;;;;;;;13.80;7.43;;;;;;;-6.95;84.34;102106.69;4856167;29;20500;-70
2022/01/25 00:48:30;;;;;;;15.83;7.93;;;;;;;-6.51;83.52;102155.28;4855997;29;20098;-69
2022/01/25 00:51:17;;;;;;;18.97;7.93;;;;;;;-6.61;83.58;102143.84;4855657;29;20062;-70
2022/01/25 00:56:18;;;;;;;24.17;9.20;;;;;;;-6.93;84.85;102148.00;4854962;29;20041;-69
2022/01/25 00:58:44;;;;;;;18.87;8.27;;;;;;;-6.97;84.36;102136.63;4855962;29;20488;-72
2022/01/25 01:01:09;;;;;;;12.93;6.40;;;;;;;-6.90;83.00;102148.38;4855894;29;20037;-72
2022/01/25 01:03:35;;;;;;;15.07;6.27;;;;;;;-7.05;84.05;102144.72;4819082;29;21237;-70
2022/01/25 01:06:01;;;;;;;11.60;6.17;;;;;;;-7.04;83.87;102155.00;4880573;29;20091;-71
2022/01/25 01:08:27;;;;;;;14.70;6.93;;;;;;;-6.94;83.20;102146.16;4933841;29;20047;-68
2022/01/25 01:10:53;;;;;;;12.23;7.57;;;;;;;-7.04;83.97;102109.81;4922818;29;20040;-68
2022/01/25 01:16:37;;;;;;;12.33;6.73;;;;;;;-6.74;83.81;102149.75;4874795;29;20053;-71
2022/01/25 01:35:43;;;;;;;14.37;7.27;;;;;;;-7.36;84.73;102103.88;4889236;29;20155;-71
2022/01/25 01:43:35;;;;;;;15.77;7.70;;;;;;;-7.14;86.58;102121.81;4893472;29;20031;-68
2022/01/25 01:51:24;;;;;;;16.43;8.17;;;;;;;-7.55;88.40;102134.72;4892753;29;20500;-72
2022/01/25 01:53:50;;;;;;;17.80;7.27;;;;;;;-7.40;89.06;102133.38;4952368;28;20042;-71
2022/01/25 01:56:15;;;;;;;13.77;7.90;;;;;;;-7.55;87.98;102089.56;4971700;28;20085;-68
2022/01/25 01:58:41;;;;;;;15.03;7.53;;;;;;;-7.29;87.46;102108.13;4977287;28;20460;-68
2022/01/25 02:01:11;;;;;;;17.40;8.20;;;;;;;-7.22;87.39;102123.31;4991148;28;20080;-69
2022/01/25 02:03:36;;;;;;;14.93;8.63;;;;;;;-7.28;87.30;102116.56;4991393;28;20037;-71
2022/01/25 02:06:03;;;;;;;18.40;9.53;;;;;;;-7.22;88.14;102115.78;4990793;28;20034;-68
2022/01/25 02:08:28;;;;;;;15.37;8.30;;;;;;;-7.30;87.91;102116.38;4991144;28;20037;-71
2022/01/25 02:10:54;;;;;;;18.27;8.97;;;;;;;-7.23;88.52;102118.09;4991014;28;20026;-72
2022/01/25 02:13:20;;;;;;;14.13;7.70;;;;;;;-7.21;88.61;102129.25;4990608;28;20504;-75
2022/01/25 02:15:48;;;;;;;15.77;7.57;;;;;;;-7.26;88.73;102120.19;4990981;28;20042;-72
2022/01/25 02:23:44;;;;;;;17.13;8.33;;;;;;;-7.64;90.28;102124.34;4990777;28;20114;-64
2022/01/25 02:26:10;;;;;;;18.37;9.03;;;;;;;-7.85;90.35;102102.25;4991092;28;20034;-73
2022/01/25 02:28:38;;;;;;;15.80;7.80;;;;;;;-7.93;90.76;102110.34;4991071;28;20038;-71
2022/01/25 02:31:06;;;;;;;20.83;10.57;;;;;;;-7.97;91.91;102106.53;4991008;28;20069;-73
2022/01/25 02:33:32;;;;;;;19.30;9.23;;;;;;;-7.76;91.97;102107.63;4991142;28;20500;-71
2022/01/25 02:36:00;;;;;;;18.10;9.20;;;;;;;-7.67;91.52;102097.25;4990711;28;20515;-71
2022/01/25 02:38:29;;;;;;;18.10;9.40;;;;;;;-7.84;90.93;102074.00;4971959;28;20043;-71
2022/01/25 02:40:56;;;;;;;16.13;9.05;;;;;;;-7.66;91.53;102104.06;4990937;28;20034;-72
2022/01/25 02:43:23;;;;;;;21.03;10.80;;;;;;;-7.67;90.79;102079.69;4989983;28;20026;-67
2022/01/25 02:48:51;;;;;;;21.97;12.13;;;;;;;-7.42;90.31;102075.47;4990339;28;20037;-71
2022/01/25 02:51:17;;;;;;;20.40;10.80;;;;;;;-7.43;90.42;102080.28;4988891;28;20058;-68
2022/01/25 02:53:43;;;;;;;23.77;11.83;;;;;;;-7.33;90.06;102076.72;4991150;28;20092;-67
2022/01/25 02:56:08;;;;;;;19.93;10.93;;;;;;;-7.35;90.34;102073.09;4972217;28;20459;-70
2022/01/25 02:58:33;;;;;;;20.47;9.03;;;;;;;-7.45;90.32;102070.06;4990778;28;20022;-68
2022/01/25 03:00:59;;;;;;;20.00;9.83;;;;;;;-7.37;90.75;102084.50;4992083;28;20034;-68
2022/01/25 03:03:24;;;;;;;21.47;10.70;;;;;;;-7.65;90.22;102019.69;4993781;28;20162;-67
2022/01/25 03:05:50;;;;;;;25.50;12.00;;;;;;;-7.31;90.61;102080.31;4994281;28;20433;-70
2022/01/25 03:08:15;;;;;;;22.53;11.37;;;;;;;-7.32;89.86;102047.50;4994023;28;20698;-72
2022/01/25 03:10:45;;;;;;;21.47;11.17;;;;;;;-7.37;89.42;102031.81;4994100;28;20477;-67
2022/01/25 03:13:16;;;;;;;22.10;10.68;;;;;;;-7.07;89.20;102056.69;4994064;28;20037;-67
2022/01/25 03:15:56;;;;;;;19.63;10.13;;;;;;;-7.16;88.78;102068.91;4993811;28;20121;-71
2022/01/25 03:21:16;;;;;;;20.20;10.43;;;;;;;-7.28;88.89;102049.72;4993853;28;20166;-70
2022/01/25 03:23:42;;;;;;;18.33;10.23;;;;;;;-7.22;89.33;102060.56;4993689;28;20409;-70
2022/01/25 03:26:08;;;;;;;17.70;9.73;;;;;;;-7.31;87.83;102067.78;4993406;28;20034;-69
2022/01/25 03:28:34;;;;;;;21.90;10.27;;;;;;;-7.25;88.74;102055.16;4993648;28;20033;-67
2022/01/25 03:30:59;;;;;;;23.60;11.80;;;;;;;-7.19;88.46;102043.41;4993456;28;20049;-69
2022/01/25 03:33:25;;;;;;;20.77;10.67;;;;;;;-7.08;88.34;102064.91;4993710;28;20491;-67
2022/01/25 03:35:50;;;;;;;20.53;10.30;;;;;;;-7.01;88.36;102059.09;4993746;28;20554;-67
2022/01/25 03:38:16;;;;;;;21.03;10.80;;;;;;;-7.04;88.29;102056.16;4993444;28;20092;-70
2022/01/25 03:40:42;;;;;;;18.30;11.30;;;;;;;-7.26;87.71;102004.78;4993278;28;20041;-70
2022/01/25 03:43:09;;;;;;;21.23;10.20;;;;;;;-7.03;87.70;102033.81;4993150;28;20109;-74
2022/01/25 03:45:37;;;;;;;23.27;10.60;;;;;;;-7.13;87.41;102000.63;4993470;28;20109;-70
2022/01/25 03:50:44;;;;;;;20.10;10.73;;;;;;;-6.92;86.92;102042.72;4993383;28;20491;-69
2022/01/25 03:53:11;;;;;;;24.17;11.17;;;;;;;-6.94;86.35;102045.75;4993229;28;20038;-70
2022/01/25 03:55:38;;;;;;;25.23;13.30;;;;;;;-6.87;85.39;102043.34;4992744;28;20069;-68
2022/01/25 03:58:04;;;;;;;22.17;12.07;;;;;;;-6.95;85.67;102026.34;4992303;28;20026;-71
2022/01/25 04:00:30;;;;;;;22.50;11.93;;;;;;;-6.80;85.74;102043.47;4993296;28;20030;-71
2022/01/25 04:03:11;;;;;;;18.17;9.87;;;;;;;-6.76;84.88;102044.75;4993145;28;20105;-71
2022/01/25 04:05:58;;;;;;;18.73;9.87;;;;;;;-6.88;83.46;102011.41;4993219;28;20405;-67
2022/01/25 04:08:22;;;;;;;17.17;9.50;;;;;;;-6.82;82.98;102029.78;4992355;28;20038;-68
2022/01/25 04:10:48;;;;;;;19.87;10.60;;;;;;;-7.09;83.79;101995.34;4993074;28;20023;-70
2022/01/25 04:13:14;;;;;;;18.80;9.10;;;;;;;-7.29;83.15;101996.81;4992636;28;20033;-70
2022/01/25 04:15:42;;;;;;;14.87;8.20;;;;;;;-7.32;84.35;102028.31;4992572;28;20027;-73
2022/01/25 04:21:27;;;;;;;14.30;8.30;;;;;;;-7.15;83.82;102032.19;4931966;29;20066;-67
2022/01/25 04:26:37;;;;;;;28.33;12.87;;;;;;;-7.26;83.98;102025.72;4932180;29;20450;-70
2022/01/25 04:29:03;;;;;;;18.17;8.80;;;;;;;-7.39;83.83;102022.28;4932487;29;20055;-68
2022/01/25 04:31:29;;;;;;;20.07;10.50;;;;;;;-7.21;84.13;102041.41;4931798;29;20075;-71
2022/01/25 04:34:23;;;;;;;24.10;10.63;;;;;;;-7.50;84.52;101984.16;4932358;29;20035;-71
2022/01/25 04:50:39;;;;;;;17.33;10.00;;;;;;;-7.01;83.65;102039.03;4932279;29;20481;-71
2022/01/25 04:53:19;;;;;;;17.73;9.33;;;;;;;-7.10;84.38;102028.66;4987871;28;20050;-67
2022/01/25 04:55:53;;;;;;;16.33;9.53;;;;;;;-6.99;83.89;102035.09;4992041;28;20045;-70
2022/01/25 04:58:30;;;;;;;15.70;9.00;;;;;;;-7.17;83.75;102003.47;4991979;28;20412;-70
2022/01/25 05:00:55;;;;;;;19.43;8.97;;;;;;;-7.01;82.95;102028.97;4992189;28;20026;-70
2022/01/25 05:03:26;;;;;;;26.27;12.63;;;;;;;-7.23;82.09;102020.22;4992045;28;20026;-69
2022/01/25 05:13:53;;;;;;;20.20;9.10;;;;;;;-7.16;82.29;102026.25;4931433;29;20659;-69
2022/01/25 05:16:33;;;;;;;17.87;9.67;;;;;;;-7.16;82.64;102006.16;4915743;29;20561;-69
2022/01/25 05:24:13;;;;;;;16.43;8.17;;;;;;;-7.28;82.41;102017.09;4911905;29;20042;-71
2022/01/25 05:26:39;;;;;;;16.67;8.60;;;;;;;-7.38;82.86;102017.47;4912373;29;20127;-69
2022/01/25 05:29:04;;;;;;;16.37;7.63;;;;;;;-7.43;82.54;102018.47;4912264;29;20051;-70
2022/01/25 05:31:30;;;;;;;14.70;8.17;;;;;;;-7.62;83.08;102014.22;4911607;29;20051;-71
2022/01/25 05:33:55;;;;;;;16.23;8.13;;;;;;;-8.19;83.03;101918.16;4918946;29;20032;-71
2022/01/25 05:36:21;;;;;;;17.50;8.73;;;;;;;-7.49;83.81;102013.56;4931206;29;20051;-71
2022/01/25 05:38:47;;;;;;;17.93;7.83;;;;;;;-7.71;82.94;101994.72;4931074;29;20067;-71
2022/01/25 05:41:14;;;;;;;17.20;8.30;;;;;;;-7.72;84.44;102007.97;4931115;29;20054;-71
2022/01/25 05:46:19;;;;;;;18.63;8.27;;;;;;;-7.98;84.60;101992.81;4931079;29;20479;-71
2022/01/25 05:48:47;;;;;;;16.73;8.80;;;;;;;-7.89;84.69;102014.81;4988049;28;20046;-74
2022/01/25 05:51:13;;;;;;;18.07;8.20;;;;;;;-7.76;84.87;102003.25;4990935;28;20576;-71
2022/01/25 05:53:40;;;;;;;17.87;7.83;;;;;;;-7.65;83.68;102013.09;4991313;28;20113;-74
2022/01/25 05:56:06;;;;;;;16.77;9.30;;;;;;;-7.53;84.29;102016.31;4991306;28;20042;-72
2022/01/25 05:58:31;;;;;;;20.97;10.07;;;;;;;-7.69;83.65;101960.75;4991015;28;20046;-68
2022/01/25 06:00:57;;;;;;;19.80;9.77;;;;;;;-7.33;82.97;102014.00;4991039;28;20033;-74
2022/01/25 06:03:22;;;;;;;22.27;9.47;;;;;;;-7.49;83.12;101998.50;4991135;28;20034;-74
2022/01/25 06:05:48;;;;;;;19.47;9.70;;;;;;;-7.41;83.23;102001.09;4990957;28;20117;-69
2022/01/25 06:08:13;;;;;;;18.33;9.13;;;;;;;-7.65;83.00;101959.50;4990908;28;20026;-70
2022/01/25 06:10:39;;;;;;;17.17;9.40;;;;;;;-7.27;82.69;102018.00;4991044;28;20034;-70
2022/01/25 06:13:05;;;;;;;17.57;10.63;;;;;;;-7.26;83.58;102004.78;4990881;28;20041;-71
2022/01/25 06:15:31;;;;;;;20.57;10.90;;;;;;;-7.10;83.06;102013.63;4991258;28;20037;-72
2022/01/25 06:17:57;;;;;;;19.27;11.10;;;;;;;-7.20;82.22;101985.47;4990981;28;20113;-68
2022/01/25 06:20:23;;;;;;;18.83;9.83;;;;;;;-7.27;82.43;101992.91;4991570;28;20109;-68
2022/01/25 06:22:49;;;;;;;18.33;9.90;;;;;;;-7.21;83.63;101998.75;4991008;28;20038;-75
2022/01/25 06:25:15;;;;;;;30.07;15.17;;;;;;;-7.20;82.91;102000.53;4990999;28;20072;-69
2022/01/25 06:27:43;;;;;;;22.03;10.70;;;;;;;-7.08;82.62;102007.16;4990348;28;20037;-69
2022/01/25 06:30:11;;;;;;;21.57;10.00;;;;;;;-6.97;82.39;102006.09;4991000;28;20034;-68
2022/01/25 06:32:37;;;;;;;16.90;9.03;;;;;;;-7.15;83.05;101961.91;4990700;28;20088;-72
2022/01/25 06:35:06;;;;;;;16.23;8.53;;;;;;;-7.01;83.72;102004.78;4990820;28;20109;-68
2022/01/25 06:37:32;;;;;;;19.25;9.63;;;;;;;-7.15;84.31;101990.41;4994611;28;20405;-70
2022/01/25 06:39:58;;;;;;;17.40;8.00;;;;;;;-7.27;85.20;101996.31;4994459;28;20061;-70
2022/01/25 06:42:28;;;;;;;19.63;8.97;;;;;;;-7.47;86.74;101951.94;4994743;28;20073;-68
2022/01/25 06:44:56;;;;;;;18.87;9.67;;;;;;;-7.13;85.56;101977.16;4994786;28;20036;-68
2022/01/25 06:47:22;;;;;;;23.67;10.93;;;;;;;-7.17;85.54;101980.88;4994521;28;20032;-69
2022/01/25 06:49:47;;;;;;;25.20;11.57;;;;;;;-6.96;86.00;101994.44;4994597;28;20030;-68
2022/01/25 06:52:13;;;;;;;50.10;25.57;;;;;;;-6.91;85.08;101970.84;4994494;28;20085;-71
2022/01/25 06:54:39;;;;;;;61.47;31.63;;;;;;;-6.67;83.65;101994.13;4994055;28;20150;-73
2022/01/25 06:57:04;;;;;;;35.30;17.77;;;;;;;-6.48;83.71;101986.44;4994435;28;20031;-68
2022/01/25 06:59:31;;;;;;;26.40;15.33;;;;;;;-6.33;83.53;101995.03;4994657;28;20082;-70
2022/01/25 07:01:57;;;;;;;24.90;14.07;;;;;;;-6.49;83.01;101929.38;4993520;28;20040;-68
2022/01/25 07:04:22;;;;;;;27.03;13.77;;;;;;;-6.24;83.77;101977.72;4993345;28;20034;-72
2022/01/25 07:06:48;;;;;;;21.37;11.80;;;;;;;-6.18;82.75;101981.03;4992319;28;20033;-72
2022/01/25 07:09:13;;;;;;;19.20;10.90;;;;;;;-6.16;83.23;101992.19;4993278;28;20030;-72
2022/01/25 07:11:38;;;;;;;16.20;9.60;;;;;;;-6.22;83.85;101972.22;4993819;28;20038;-71
2022/01/25 07:14:04;;;;;;;23.73;10.23;;;;;;;-6.41;83.52;101912.75;4993780;28;20030;-70
2022/01/25 07:16:30;;;;;;;17.43;8.73;;;;;;;-6.13;83.33;101972.47;4993941;28;20603;-72
2022/01/25 07:18:55;;;;;;;18.90;9.10;;;;;;;-6.12;83.62;101971.75;4992670;28;20040;-71
2022/01/25 07:21:28;;;;;;;18.33;9.97;;;;;;;-5.98;85.31;101965.06;4992670;28;20040;-72
2022/01/25 07:23:53;;;;;;;18.30;8.60;;;;;;;-6.03;83.95;101941.84;4993766;28;20042;-72
2022/01/25 07:26:19;;;;;;;17.40;9.27;;;;;;;-6.15;84.24;101920.22;4996435;28;20453;-73
2022/01/25 07:28:44;;;;;;;21.03;9.87;;;;;;;-5.67;83.18;101964.75;4994946;28;20053;-71
2022/01/25 07:31:10;;;;;;;13.63;7.50;;;;;;;-5.58;82.88;101962.50;4993378;28;20058;-71
2022/01/25 07:33:35;;;;;;;16.97;8.20;;;;;;;-5.53;83.07;101953.94;4993599;28;20034;-71
2022/01/25 07:36:02;;;;;;;17.47;9.67;;;;;;;-5.47;82.13;101954.69;4991286;28;20042;-71
2022/01/25 07:38:27;;;;;;;12.83;7.00;;;;;;;-5.45;81.36;101954.88;5004358;28;20065;-71
2022/01/25 07:40:53;;;;;;;16.83;8.80;;;;;;;-5.39;82.44;101954.03;4995661;28;20069;-71
2022/01/25 07:43:18;;;;;;;15.87;8.60;;;;;;;-5.26;81.03;101950.50;4992457;28;20034;-70
2022/01/25 07:45:50;;;;;;;16.20;7.00;;;;;;;-5.14;81.30;101947.00;4992736;28;20121;-71
2022/01/25 07:48:16;;;;;;;24.83;9.53;;;;;;;-5.07;81.71;101944.53;4993050;28;20120;-70
2022/01/25 07:50:42;;;;;;;14.40;8.57;;;;;;;-5.04;81.04;101939.84;4993388;28;20445;-71
2022/01/25 07:53:07;;;;;;;13.57;6.63;;;;;;;-5.25;81.01;101902.84;4992732;28;20034;-71
2022/01/25 07:55:33;;;;;;;14.43;7.43;;;;;;;-4.97;80.87;101945.63;4992214;28;20053;-70
2022/01/25 07:57:59;;;;;;;13.40;7.70;;;;;;;-4.90;81.32;101943.16;4992384;28;20019;-70
2022/01/25 08:00:25;;;;;;;10.43;5.73;;;;;;;-5.11;79.99;101894.50;4992421;28;20053;-70
2022/01/25 08:02:51;;;;;;;11.60;6.27;;;;;;;-4.76;78.88;101937.28;4991115;28;20018;-70
2022/01/25 08:05:19;;;;;;;14.13;7.53;;;;;;;-4.68;79.31;101935.72;4987710;28;20037;-71
2022/01/25 08:07:45;;;;;;;12.77;6.20;;;;;;;-4.63;77.22;101942.22;4991959;28;20026;-71
2022/01/25 08:10:11;;;;;;;11.40;6.17;;;;;;;-4.50;78.12;101927.81;4992437;28;20026;-71
2022/01/25 08:12:38;;;;;;;11.30;5.87;;;;;;;-4.36;78.63;101915.97;4992231;28;20033;-70
2022/01/25 08:15:06;;;;;;;13.13;7.30;;;;;;;-4.27;77.30;101920.50;4992004;28;20019;-71
2022/01/25 08:17:32;;;;;;;13.47;6.47;;;;;;;-4.58;77.40;101865.53;4987743;28;20058;-70
2022/01/25 08:19:57;;;;;;;13.33;7.70;;;;;;;-4.15;78.05;101922.69;4991446;28;20108;-70
2022/01/25 08:22:24;;;;;;;12.73;7.20;;;;;;;-4.06;77.82;101914.59;4992205;28;20026;-70
2022/01/25 08:24:50;;;;;;;15.47;8.93;;;;;;;-3.86;76.95;101926.16;4992082;28;20084;-71
2022/01/25 08:27:19;;;;;;;14.93;8.27;;;;;;;-3.78;76.09;101915.31;4992206;28;20042;-70
2022/01/25 08:29:52;;;;;;;15.15;7.45;;;;;;;-3.84;76.04;101912.06;4991911;28;20027;-69
2022/01/25 08:32:18;;;;;;;13.30;6.70;;;;;;;-3.69;76.32;101914.59;4990325;28;20488;-71
2022/01/25 08:34:44;;;;;;;14.03;8.10;;;;;;;-3.62;74.97;101912.09;4991355;28;20451;-72
2022/01/25 08:37:09;;;;;;;14.37;7.67;;;;;;;-3.52;75.18;101919.09;4990272;28;20030;-70
2022/01/25 08:39:35;;;;;;;14.27;8.10;;;;;;;-3.49;75.59;101914.41;4991489;28;20054;-70
2022/01/25 08:42:00;;;;;;;11.07;5.80;;;;;;;-3.58;73.70;101911.72;4990561;28;20433;-71
2022/01/25 08:44:26;;;;;;;14.37;8.03;;;;;;;-3.40;73.93;101918.00;4983197;28;20041;-73
2022/01/25 08:46:52;;;;;;;13.27;6.73;;;;;;;-3.36;73.74;101917.63;4989252;28;20057;-71
2022/01/25 08:49:17;;;;;;;10.73;5.67;;;;;;;-3.20;74.19;101907.69;4959024;28;20042;-70
2022/01/25 08:51:43;;;;;;;11.43;6.60;;;;;;;-3.17;72.73;101909.66;4972776;28;20046;-71
2022/01/25 08:54:09;;;;;;;13.00;5.87;;;;;;;-3.27;72.13;101905.16;4989005;28;20046;-70
2022/01/25 08:56:35;;;;;;;13.20;7.50;;;;;;;-3.25;71.75;101911.31;4991301;28;20061;-71
2022/01/25 08:59:01;;;;;;;12.07;7.23;;;;;;;-3.06;72.61;101900.78;4993155;28;20068;-71
2022/01/25 09:01:27;;;;;;;13.77;8.30;;;;;;;-3.06;73.32;101903.31;4922720;28;20050;-71
2022/01/25 09:03:56;;;;;;;12.47;6.20;;;;;;;-3.12;69.34;101898.44;4991000;28;20481;-71
2022/01/25 09:06:21;;;;;;;8.18;4.38;;;;;;;-3.15;69.99;101896.47;4992120;28;20030;-71
2022/01/25 09:08:49;;;;;;;26.17;13.47;;;;;;;-3.05;69.57;101884.88;4985280;28;20034;-71
2022/01/25 09:11:15;;;;;;;12.97;6.50;;;;;;;-3.03;70.27;101888.50;4989150;28;20142;-70
2022/01/25 09:13:41;;;;;;;18.17;9.97;;;;;;;-3.05;69.98;101867.19;4990869;28;20022;-70
2022/01/25 09:16:07;;;;;;;17.17;9.50;;;;;;;-2.77;69.06;101882.25;4991019;28;20492;-70
2022/01/25 09:18:33;;;;;;;14.77;7.63;;;;;;;-2.62;68.04;101887.22;4927269;28;20046;-70
2022/01/25 09:20:58;;;;;;;10.67;5.43;;;;;;;-2.75;64.90;101879.91;4983857;28;20493;-71
2022/01/25 09:23:25;;;;;;;11.33;6.57;;;;;;;-2.88;66.62;101823.63;4982380;28;20077;-70
2022/01/25 09:25:51;;;;;;;10.73;6.83;;;;;;;-2.58;65.00;101876.72;4980004;28;20520;-70
2022/01/25 09:28:17;;;;;;;15.93;7.30;;;;;;;-2.35;63.84;101870.81;4989172;28;20034;-70
2022/01/25 09:30:43;;;;;;;12.53;7.00;;;;;;;-2.31;64.32;101870.41;4991171;28;20030;-71
2022/01/25 09:33:09;;;;;;;17.20;11.57;;;;;;;-2.34;64.77;101845.69;4990408;28;20026;-71
2022/01/25 09:35:35;;;;;;;11.83;7.20;;;;;;;-2.36;65.04;101854.72;4990882;28;20037;-71
2022/01/25 09:38:01;;;;;;;13.07;7.80;;;;;;;-2.41;63.66;101811.97;4990917;28;20072;-71
2022/01/25 09:40:27;;;;;;;14.10;7.70;;;;;;;-2.24;64.78;101829.91;4990861;28;20033;-71
2022/01/25 09:42:55;;;;;;;15.70;8.70;;;;;;;-1.91;64.59;101846.97;4988137;28;20114;-71
2022/01/25 09:45:21;;;;;;;11.93;7.90;;;;;;;-1.81;63.64;101839.66;4986333;28;20446;-69
2022/01/25 09:47:48;;;;;;;13.47;7.23;;;;;;;-2.02;62.99;101776.56;4988260;28;20034;-70
2022/01/25 09:50:14;;;;;;;12.97;6.70;;;;;;;-2.00;62.98;101790.28;4990593;28;20018;-70
2022/01/25 09:52:44;;;;;;;12.07;6.90;;;;;;;-1.74;60.74;101822.59;4990613;28;20065;-70
2022/01/25 09:55:11;;;;;;;;;;;;;;;-1.45;61.10;101817.22;4989041;28;20113;-70
2022/01/25 09:57:36;;;;;;;13.67;6.73;;;;;;;-1.43;61.24;101803.97;4987969;28;19922;-70
2022/01/25 10:00:06;;;;;;;13.87;7.47;;;;;;;-1.24;60.56;101804.28;4990452;28;20108;-71
2022/01/25 10:02:40;;;;;;;12.17;7.80;;;;;;;-1.28;58.93;101799.66;4990646;28;20501;-70
2022/01/25 10:05:27;;;;;;;26.37;14.47;;;;;;;-0.90;58.35;101805.28;4990399;28;20041;-70
2022/01/25 10:08:05;;;;;;;12.97;7.43;;;;;;;-1.18;56.84;101749.19;4990609;28;20424;-70
2022/01/25 10:10:33;;;;;;;13.73;7.30;;;;;;;-0.72;56.32;101778.41;4992332;28;20040;-70
2022/01/25 10:13:15;;;;;;;11.70;7.03;;;;;;;-0.59;55.67;101785.63;4994120;28;20033;-71
2022/01/25 10:15:41;;;;;;;11.53;7.40;;;;;;;-1.20;56.58;101770.91;4994545;28;20076;-70
2022/01/25 10:18:07;;;;;;;10.97;6.70;;;;;;;-0.99;56.30;101779.00;4994255;28;20030;-70
2022/01/25 10:20:36;;;;;;;13.07;6.63;;;;;;;-0.90;56.43;101772.31;4976936;28;20432;-71
2022/01/25 10:23:13;;;;;;;9.55;5.90;;;;;;;-0.50;55.29;101771.38;4994062;28;20113;-71
2022/01/25 10:25:45;;;;;;;13.10;6.73;;;;;;;-0.30;54.05;101757.25;4990006;28;20440;-71
2022/01/25 10:28:12;;;;;;;11.30;7.00;;;;;;;-0.43;55.11;101755.13;4993951;28;20084;-71
2022/01/25 10:30:47;;;;;;;12.40;6.87;;;;;;;-0.68;53.92;101737.41;4984644;28;20037;-71
2022/01/25 10:33:39;;;;;;;11.23;7.10;;;;;;;-0.96;55.30;101755.59;4992897;28;20034;-71
2022/01/25 10:36:18;;;;;;;12.97;6.77;;;;;;;-0.83;55.54;101743.47;4993913;28;20037;-71
2022/01/25 10:39:03;;;;;;;8.93;5.20;;;;;;;-1.00;54.64;101741.69;4994146;28;20031;-71
2022/01/25 10:41:28;;;;;;;11.47;7.00;;;;;;;-0.95;55.52;101727.84;4920918;29;20044;-71
2022/01/25 10:43:56;;;;;;;14.60;7.20;;;;;;;-0.85;55.35;101715.41;4946443;29;20042;-71
2022/01/25 10:46:28;;;;;;;10.40;6.73;;;;;;;-0.75;53.96;101722.31;4952565;29;20055;-71
2022/01/25 10:48:56;;;;;;;13.17;7.67;;;;;;;-0.54;51.42;101717.63;4920625;29;20050;-71
2022/01/25 10:51:24;;;;;;;11.30;6.50;;;;;;;-0.60;51.51;101725.50;4952105;29;20059;-71
2022/01/25 10:53:59;;;;;;;12.73;7.83;;;;;;;-0.58;51.13;101713.88;4952710;29;20162;-71
2022/01/25 10:56:25;;;;;;;12.30;7.03;;;;;;;-0.57;52.33;101709.72;4951942;29;20046;-71
2022/01/25 10:58:51;;;;;;;11.90;7.23;;;;;;;-0.66;51.70;101689.41;4952394;29;20035;-71
2022/01/25 11:01:37;;;;;;;10.70;6.40;;;;;;;-0.26;49.51;101688.34;4944511;29;20186;-72
2022/01/25 11:04:06;;;;;;;11.93;6.77;;;;;;;-0.40;49.08;101650.53;4937787;29;20481;-71
2022/01/25 11:06:32;;;;;;;10.30;6.03;;;;;;;-0.28;48.58;101694.00;4952159;29;20047;-71
2022/01/25 11:09:01;;;;;;;17.33;6.77;;;;;;;-0.56;49.83;101669.28;4921078;29;20036;-71
2022/01/25 11:11:32;;;;;;;8.97;5.83;;;;;;;-0.52;48.95;101681.53;4948727;28;20091;-69
2022/01/25 11:14:49;;;;;;;17.00;7.23;;;;;;;-0.44;49.17;101678.88;4992971;28;20405;-72
2022/01/25 11:16:43;;;;;;;11.73;7.07;;;;;;;-0.31;49.63;101669.22;4993104;28;20033;-72
2022/01/25 11:19:09;;;;;;;13.47;7.50;;;;;;;-0.13;51.04;101674.31;4991201;28;20026;-72
2022/01/25 11:21:34;;;;;;;11.70;6.90;;;;;;;-0.30;49.63;101673.53;4934296;28;20042;-71
2022/01/25 11:24:00;;;;;;;14.03;7.43;;;;;;;-0.29;51.45;101664.28;4981532;28;20038;-71
2022/01/25 11:26:26;;;;;;;10.77;5.93;;;;;;;-0.54;49.70;101651.69;4993536;28;20038;-74
2022/01/25 11:28:52;;;;;;;12.33;7.27;;;;;;;-0.34;50.18;101657.13;4986925;28;20032;-72
2022/01/25 11:31:24;;;;;;;10.73;6.43;;;;;;;-0.15;50.37;101641.16;4981143;28;20031;-71
2022/01/25 11:33:52;;;;;;;19.40;8.97;;;;;;;-0.19;48.62;101660.28;4991810;28;20034;-71
2022/01/25 11:36:19;;;;;;;12.60;7.17;;;;;;;-0.20;49.22;101652.50;4993486;28;20026;-73
2022/01/25 11:38:54;;;;;;;11.90;6.83;;;;;;;-0.08;48.31;101643.56;4986671;28;20030;-73
2022/01/25 11:41:23;;;;;;;12.77;8.13;;;;;;;-0.36;49.46;101617.13;4982484;28;20026;-71
2022/01/25 11:44:21;;;;;;;11.73;6.90;;;;;;;-0.18;48.74;101638.34;4989191;28;20046;-68
2022/01/25 11:46:54;;;;;;;15.20;9.53;;;;;;;0.04;48.33;101640.44;4992752;28;20044;-73
2022/01/25 11:49:22;;;;;;;13.00;7.43;;;;;;;-0.12;49.25;101628.78;4993390;28;20030;-73
2022/01/25 11:52:10;;;;;;;11.87;6.30;;;;;;;-0.61;49.15;101596.00;4991254;28;20483;-70
2022/01/25 11:54:36;;;;;;;15.23;8.10;;;;;;;-0.45;50.50;101599.31;4962587;28;20094;-71
2022/01/25 11:57:26;;;;;;;11.67;5.83;;;;;;;-0.37;48.94;101622.94;4952678;28;20043;-71
2022/01/25 11:59:53;;;;;;;;;;;;;;;-0.36;49.77;101625.63;4894866;29;20110;-68
2022/01/25 12:02:34;;;;;;;11.57;7.13;;;;;;;-0.25;48.64;101614.00;4892889;29;19974;-71
2022/01/25 12:05:12;;;;;;;11.90;6.60;;;;;;;-0.07;49.18;101614.00;4876098;29;20053;-74
2022/01/25 12:07:41;;;;;;;10.50;6.00;;;;;;;0.11;47.38;101618.34;4882744;29;20072;-71
2022/01/25 12:10:44;;;;;;;13.40;7.37;;;;;;;0.05;47.98;101614.31;4894162;29;20186;-71
2022/01/25 12:13:14;;;;;;;10.20;6.10;;;;;;;-0.03;47.48;101613.56;4856962;29;20428;-69
2022/01/25 12:15:41;;;;;;;10.07;6.30;;;;;;;-0.18;47.13;101573.22;4855521;29;20053;-71
2022/01/25 12:18:48;;;;;;;15.13;8.57;;;;;;;-0.05;48.32;101594.72;4855875;29;20056;-74
2022/01/25 12:21:13;;;;;;;17.93;10.43;;;;;;;-0.15;47.73;101612.34;4855949;29;20124;-72
2022/01/25 12:23:45;;;;;;;11.03;7.10;;;;;;;-0.16;47.84;101603.84;4855944;29;20572;-71
2022/01/25 12:26:16;;;;;;;11.23;6.60;;;;;;;-0.13;46.82;101606.69;4869149;29;20520;-70
2022/01/25 12:28:45;;;;;;;13.13;6.50;;;;;;;0.06;46.26;101601.75;4874960;29;20073;-71
2022/01/25 12:31:16;;;;;;;10.60;6.32;;;;;;;0.18;44.86;101583.41;4873331;29;20049;-72
2022/01/25 12:33:43;;;;;;;10.17;5.80;;;;;;;0.27;44.54;101590.22;4870700;29;20610;-72
2022/01/25 12:36:09;;;;;;;11.63;6.40;;;;;;;0.37;44.96;101596.22;4880106;29;20044;-71
2022/01/25 12:38:37;;;;;;;9.57;6.30;;;;;;;0.37;44.82;101586.94;4919710;29;20036;-71
2022/01/25 12:41:06;;;;;;;14.10;7.60;;;;;;;0.25;45.70;101535.88;4920557;29;20047;-72
2022/01/25 12:43:44;;;;;;;11.13;6.97;;;;;;;0.29;46.44;101585.31;4919843;29;20043;-71
2022/01/25 12:46:24;;;;;;;11.47;7.00;;;;;;;0.15;45.59;101577.25;4905431;28;20052;-71
2022/01/25 12:48:54;;;;;;;12.40;6.53;;;;;;;-0.51;45.90;101507.41;4990925;28;20481;-71
2022/01/25 12:51:23;;;;;;;13.47;6.00;;;;;;;0.05;47.96;101569.50;4990856;28;20412;-74
2022/01/25 12:53:53;;;;;;;12.00;6.77;;;;;;;-0.01;47.29;101574.88;4990857;28;20019;-71
2022/01/25 12:56:21;;;;;;;13.45;7.03;;;;;;;-0.20;47.58;101546.81;4946894;28;20416;-74
2022/01/25 12:58:52;;;;;;;11.53;6.70;;;;;;;-0.13;46.99;101570.25;4990740;28;20161;-73
2022/01/25 13:01:22;;;;;;;11.97;7.27;;;;;;;-0.02;45.75;101547.69;4989932;28;20034;-72
2022/01/25 13:03:52;;;;;;;10.77;6.37;;;;;;;-0.30;46.14;101500.09;4988676;28;20068;-73
2022/01/25 13:06:24;;;;;;;14.57;8.20;;;;;;;0.11;45.17;101557.41;4984703;28;20117;-73
2022/01/25 13:09:11;;;;;;;18.20;10.20;;;;;;;0.00;45.97;101512.31;4986177;28;20022;-74
2022/01/25 13:16:34;;;;;;;;;;;;;;;0.51;44.44;101547.59;4972931;28;20033;-73
2022/01/25 13:19:00;;;;;;;16.87;9.83;;;;;;;0.37;44.84;101533.59;4974893;28;19917;-73
2022/01/25 13:21:25;;;;;;;11.37;6.50;;;;;;;0.32;44.89;101545.88;4990749;28;20029;-72